createdAt,value
2018-07-17T00:02:25.028Z,21.90
2018-07-17T00:04:53.452Z,21.90
2018-07-17T00:07:21.849Z,21.80
2018-07-17T00:09:50.540Z,21.80
2018-07-17T00:12:18.888Z,21.80
2018-07-17T00:14:47.337Z,21.80
2018-07-17T00:17:15.680Z,21.70
2018-07-17T00:19:44.016Z,21.70
2018-07-17T00:22:12.375Z,21.70
2018-07-17T00:24:40.813Z,21.70
2018-07-17T00:27:09.208Z,21.60
2018-07-17T00:29:37.590Z,21.60
2018-07-17T00:32:06.014Z,21.60
2018-07-17T00:34:34.407Z,21.60
2018-07-17T00:37:03.136Z,21.60
2018-07-17T00:41:59.766Z,21.50
2018-07-17T00:44:28.196Z,21.50
2018-07-17T00:46:56.594Z,21.50
2018-07-17T00:49:25.021Z,21.40
2018-07-17T00:51:53.440Z,21.40
2018-07-17T00:54:21.820Z,21.40
2018-07-17T00:56:50.186Z,21.40
2018-07-17T00:59:18.578Z,21.30
2018-07-17T01:01:52.355Z,21.30
2018-07-17T01:04:26.003Z,21.30
2018-07-17T01:06:59.842Z,21.30
2018-07-17T01:09:33.419Z,21.20
2018-07-17T01:12:07.142Z,21.20
2018-07-17T01:14:39.800Z,21.20
2018-07-17T01:17:08.182Z,21.20
2018-07-17T01:19:36.612Z,21.10
2018-07-17T01:22:05.037Z,21.10
2018-07-17T01:24:33.393Z,21.10
2018-07-17T01:27:01.756Z,21.10
2018-07-17T01:29:30.090Z,21.10
2018-07-17T01:31:58.527Z,21.00
2018-07-17T01:34:26.978Z,21.00
2018-07-17T01:36:55.610Z,21.00
2018-07-17T01:39:24.033Z,21.00
2018-07-17T01:41:52.448Z,20.90
2018-07-17T01:44:20.872Z,20.90
2018-07-17T01:46:49.268Z,20.90
2018-07-17T01:49:17.620Z,20.90
2018-07-17T01:51:46.072Z,20.80
2018-07-17T01:54:14.428Z,20.80
2018-07-17T01:56:42.832Z,20.80
2018-07-17T01:59:11.208Z,20.70
2018-07-17T02:01:39.708Z,20.70
2018-07-17T02:04:08.198Z,20.70
2018-07-17T02:06:36.624Z,20.60
2018-07-17T02:09:06.136Z,20.60
2018-07-17T02:11:34.510Z,20.60
2018-07-17T02:14:03.016Z,20.50
2018-07-17T02:16:31.481Z,20.50
2018-07-17T02:18:59.871Z,20.50
2018-07-17T02:21:28.284Z,20.50
2018-07-17T02:23:56.722Z,20.50
2018-07-17T02:26:25.048Z,20.50
2018-07-17T02:28:55.956Z,20.40
2018-07-17T02:31:24.317Z,20.40
2018-07-17T02:33:52.657Z,20.30
2018-07-17T02:36:21.164Z,20.30
2018-07-17T02:38:49.654Z,20.30
2018-07-17T02:41:18.021Z,20.30
2018-07-17T02:43:46.433Z,20.20
2018-07-17T02:46:14.828Z,20.20
2018-07-17T02:48:43.253Z,20.20
2018-07-17T02:51:11.613Z,20.20
2018-07-17T02:53:39.936Z,20.20
2018-07-17T02:56:10.335Z,20.20
2018-07-17T02:58:38.982Z,20.10
2018-07-17T03:01:07.388Z,20.10
2018-07-17T03:03:35.771Z,20.10
2018-07-17T03:06:04.160Z,20.10
2018-07-17T03:08:32.550Z,20.10
2018-07-17T03:11:01.227Z,20.00
2018-07-17T03:13:29.539Z,20.00
2018-07-17T03:15:57.899Z,20.00
2018-07-17T03:18:26.342Z,20.00
2018-07-17T03:20:54.749Z,19.90
2018-07-17T03:23:23.161Z,19.90
2018-07-17T03:25:51.553Z,19.90
2018-07-17T03:28:19.944Z,19.90
2018-07-17T03:30:48.327Z,19.90
2018-07-17T03:33:16.710Z,19.80
2018-07-17T03:35:45.179Z,19.90
2018-07-17T03:38:13.640Z,19.80
2018-07-17T03:40:41.985Z,19.80
2018-07-17T03:43:10.383Z,19.80
2018-07-17T03:45:38.748Z,19.80
2018-07-17T03:48:07.142Z,19.80
2018-07-17T03:50:35.588Z,19.70
2018-07-17T03:53:03.994Z,19.70
2018-07-17T03:58:00.492Z,19.70
2018-07-17T04:00:28.920Z,19.70
2018-07-17T04:02:57.392Z,19.70
2018-07-17T04:05:25.765Z,19.70
2018-07-17T04:07:54.170Z,19.60
2018-07-17T04:10:22.664Z,19.60
2018-07-17T04:12:51.020Z,19.60
2018-07-17T04:15:19.477Z,19.60
2018-07-17T04:17:47.936Z,19.60
2018-07-17T04:20:16.517Z,19.60
2018-07-17T04:25:13.118Z,19.60
2018-07-17T04:27:41.681Z,19.60
2018-07-17T04:30:10.065Z,19.60
2018-07-17T04:32:38.533Z,19.60
2018-07-17T04:35:07.713Z,19.60
2018-07-17T04:37:36.153Z,19.60
2018-07-17T04:40:09.356Z,19.60
2018-07-17T04:42:37.883Z,19.60
2018-07-17T04:45:06.260Z,19.60
2018-07-17T04:47:34.741Z,19.60
2018-07-17T04:50:03.201Z,19.60
2018-07-17T04:52:31.560Z,19.60
2018-07-17T04:54:59.965Z,19.70
2018-07-17T04:57:28.509Z,19.70
2018-07-17T04:59:57.374Z,19.80
2018-07-17T05:02:25.715Z,19.80
2018-07-17T05:04:54.104Z,19.80
2018-07-17T05:07:22.486Z,19.80
2018-07-17T05:09:51.076Z,19.90
2018-07-17T05:12:19.578Z,19.90
2018-07-17T05:14:48.081Z,20.00
2018-07-17T05:17:16.581Z,20.00
2018-07-17T05:19:45.019Z,20.00
2018-07-17T05:22:13.605Z,20.10
2018-07-17T05:24:42.045Z,20.20
2018-07-17T05:27:10.446Z,20.20
2018-07-17T05:29:39.056Z,20.30
2018-07-17T05:32:07.607Z,20.30
2018-07-17T05:34:35.906Z,20.30
2018-07-17T05:37:04.546Z,20.40
2018-07-17T05:39:33.008Z,20.40
2018-07-17T05:42:01.376Z,20.40
2018-07-17T05:44:33.237Z,20.50
2018-07-17T05:47:01.658Z,20.40
2018-07-17T05:49:30.111Z,20.50
2018-07-17T05:51:58.577Z,20.50
2018-07-17T05:54:26.936Z,20.40
2018-07-17T05:56:55.352Z,20.30
2018-07-17T05:59:37.210Z,20.30
2018-07-17T06:02:05.594Z,20.20
2018-07-17T06:04:33.968Z,20.30
2018-07-17T06:09:34.345Z,20.30
2018-07-17T06:12:12.364Z,20.30
2018-07-17T06:14:40.852Z,20.40
2018-07-17T06:17:09.262Z,20.40
2018-07-17T06:19:41.913Z,20.50
2018-07-17T06:22:10.398Z,20.60
2018-07-17T06:24:38.756Z,20.60
2018-07-17T06:27:07.100Z,20.70
2018-07-17T06:32:03.628Z,20.70
2018-07-17T06:34:32.079Z,20.80
2018-07-17T06:37:00.415Z,20.80
2018-07-17T06:39:28.832Z,20.90
2018-07-17T06:41:57.301Z,20.90
2018-07-17T06:44:25.679Z,21.00
2018-07-17T06:46:54.018Z,21.00
2018-07-17T06:49:22.363Z,21.10
2018-07-17T06:51:50.752Z,21.20
2018-07-17T06:54:29.358Z,21.30
2018-07-17T06:56:57.745Z,21.40
2018-07-17T06:59:26.117Z,21.50
2018-07-17T07:01:54.538Z,21.60
2018-07-17T07:04:22.976Z,21.70
2018-07-17T07:06:52.484Z,21.70
2018-07-17T07:09:20.902Z,21.80
2018-07-17T07:11:55.471Z,21.80
2018-07-17T07:14:27.183Z,21.80
2018-07-17T07:16:55.597Z,21.80
2018-07-17T07:19:34.435Z,21.90
2018-07-17T07:22:02.824Z,22.00
2018-07-17T07:24:31.196Z,22.10
2018-07-17T07:26:59.693Z,22.20
2018-07-17T07:29:28.068Z,22.30
2018-07-17T07:31:56.522Z,22.40
2018-07-17T07:34:24.961Z,22.50
2018-07-17T07:36:53.468Z,22.70
2018-07-17T07:39:21.846Z,22.80
2018-07-17T07:41:50.298Z,22.80
2018-07-17T07:44:18.800Z,22.90
2018-07-17T07:46:47.260Z,23.00
2018-07-17T07:49:16.338Z,23.00
2018-07-17T07:51:44.880Z,23.10
2018-07-17T07:54:13.376Z,23.10
2018-07-17T07:56:41.821Z,23.20
2018-07-17T07:59:10.307Z,23.20
2018-07-17T08:01:38.697Z,23.20
2018-07-17T08:04:07.250Z,23.30
2018-07-17T08:06:35.464Z,23.40
2018-07-17T08:09:04.636Z,23.50
2018-07-17T08:11:33.413Z,23.50
2018-07-17T08:14:01.757Z,23.60
2018-07-17T08:16:30.480Z,23.70
2018-07-17T08:18:59.508Z,23.80
2018-07-17T08:21:28.104Z,23.80
2018-07-17T08:23:56.599Z,23.90
2018-07-17T08:26:25.056Z,23.90
2018-07-17T08:28:53.488Z,24.00
2018-07-17T08:31:22.746Z,24.00
2018-07-17T08:33:51.136Z,24.10
2018-07-17T08:36:19.552Z,24.20
2018-07-17T08:38:48.053Z,24.30
2018-07-17T08:41:16.521Z,24.30
2018-07-17T08:43:55.260Z,24.30
2018-07-17T08:46:23.835Z,24.30
2018-07-17T08:48:52.245Z,24.20
2018-07-17T08:51:22.042Z,24.20
2018-07-17T08:53:53.352Z,24.20
2018-07-17T08:56:23.624Z,24.30
2018-07-17T08:58:59.057Z,24.30
2018-07-17T09:01:33.891Z,24.50
2018-07-17T09:04:19.633Z,24.60
2018-07-17T09:06:48.791Z,24.70
2018-07-17T09:09:18.344Z,24.70
2018-07-17T09:11:46.772Z,24.70
2018-07-17T09:14:15.176Z,24.80
2018-07-17T09:16:43.587Z,24.90
2018-07-17T09:19:12.010Z,25.00
2018-07-17T09:21:40.477Z,25.10
2018-07-17T09:24:08.764Z,25.30
2018-07-17T09:26:37.140Z,25.30
2018-07-17T09:29:05.709Z,25.30
2018-07-17T09:31:34.060Z,25.30
2018-07-17T09:34:02.388Z,25.30
2018-07-17T09:36:31.204Z,25.30
2018-07-17T09:38:59.789Z,25.40
2018-07-17T09:41:28.301Z,25.40
2018-07-17T09:43:57.606Z,25.40
2018-07-17T09:46:26.098Z,25.60
2018-07-17T09:48:54.591Z,25.60
2018-07-17T09:51:22.963Z,25.70
2018-07-17T09:53:51.312Z,25.70
2018-07-17T09:56:19.761Z,25.80
2018-07-17T09:58:48.162Z,25.90
2018-07-17T10:01:21.937Z,25.90
2018-07-17T10:03:50.432Z,25.90
2018-07-17T10:06:24.379Z,26.10
2018-07-17T10:08:54.556Z,26.20
2018-07-17T10:11:23.655Z,26.40
2018-07-17T10:13:53.371Z,26.50
2018-07-17T10:16:21.828Z,26.60
2018-07-17T10:18:50.636Z,26.60
2018-07-17T10:21:18.987Z,26.70
2018-07-17T10:23:47.577Z,26.80
2018-07-17T10:26:16.780Z,26.90
2018-07-17T10:28:45.347Z,27.00
2018-07-17T10:31:14.321Z,27.10
2018-07-17T10:33:42.816Z,27.30
2018-07-17T10:36:11.202Z,27.40
2018-07-17T10:38:39.795Z,27.50
2018-07-17T10:41:08.476Z,27.50
2018-07-17T10:46:05.044Z,27.50
2018-07-17T10:48:33.861Z,27.50
2018-07-17T10:53:30.614Z,27.70
2018-07-17T10:55:59.174Z,27.70
2018-07-17T10:58:27.744Z,27.80
2018-07-17T11:00:56.353Z,27.80
2018-07-17T11:03:24.846Z,27.90
2018-07-17T11:05:54.026Z,28.00
2018-07-17T11:08:22.590Z,28.10
2018-07-17T11:10:51.019Z,28.10
2018-07-17T11:15:48.032Z,28.30
2018-07-17T11:18:16.650Z,28.50
2018-07-17T11:20:45.345Z,28.60
2018-07-17T11:23:13.895Z,28.70
2018-07-17T11:25:42.437Z,28.80
2018-07-17T11:28:13.011Z,28.90
2018-07-17T11:30:41.447Z,29.00
2018-07-17T11:33:09.902Z,29.10
2018-07-17T11:35:38.362Z,29.20
2018-07-17T11:38:06.829Z,29.20
2018-07-17T11:40:35.322Z,29.40
2018-07-17T11:43:03.962Z,29.50
2018-07-17T11:45:32.502Z,29.70
2018-07-17T11:48:00.941Z,29.80
2018-07-17T11:50:29.317Z,29.90
2018-07-17T11:52:57.764Z,30.00
2018-07-17T11:55:26.172Z,30.10
2018-07-17T11:57:54.609Z,30.10
2018-07-17T12:00:23.053Z,30.10
2018-07-17T12:02:51.457Z,30.00
2018-07-17T12:05:19.981Z,30.10
2018-07-17T12:07:48.415Z,30.00
2018-07-17T12:10:19.076Z,30.00
2018-07-17T12:12:47.615Z,29.80
2018-07-17T12:15:15.913Z,29.70
2018-07-17T12:17:44.310Z,29.70
2018-07-17T12:20:12.863Z,29.80
2018-07-17T12:22:41.265Z,29.90
2018-07-17T12:25:09.688Z,30.10
2018-07-17T12:27:38.096Z,30.10
2018-07-17T12:30:06.650Z,30.20
2018-07-17T12:32:35.177Z,30.40
2018-07-17T12:35:03.854Z,30.50
2018-07-17T12:37:32.343Z,30.60
2018-07-17T12:40:01.118Z,30.70
2018-07-17T12:42:29.588Z,30.80
2018-07-17T12:44:58.052Z,30.80
2018-07-17T12:47:26.410Z,30.90
2018-07-17T12:49:54.897Z,31.00
2018-07-17T12:52:23.722Z,31.10
2018-07-17T12:54:52.065Z,31.20
2018-07-17T12:57:20.441Z,31.30
2018-07-17T12:59:48.861Z,31.30
2018-07-17T13:02:17.208Z,31.20
2018-07-17T13:04:45.632Z,31.20
2018-07-17T13:07:13.984Z,31.00
2018-07-17T13:09:42.943Z,31.00
2018-07-17T13:12:11.533Z,30.90
2018-07-17T13:14:39.954Z,30.90
2018-07-17T13:17:08.789Z,31.00
2018-07-17T13:19:37.101Z,31.00
2018-07-17T13:22:06.257Z,31.00
2018-07-17T13:24:35.020Z,31.00
2018-07-17T13:27:03.544Z,30.90
2018-07-17T13:29:31.987Z,30.80
2018-07-17T13:32:00.428Z,30.80
2018-07-17T13:34:28.932Z,30.80
2018-07-17T13:36:57.374Z,30.90
2018-07-17T13:39:25.822Z,31.00
2018-07-17T13:41:54.327Z,31.20
2018-07-17T13:44:22.811Z,31.20
2018-07-17T13:46:51.239Z,31.20
2018-07-17T13:49:19.611Z,31.00
2018-07-17T13:51:48.104Z,30.90
2018-07-17T13:54:16.589Z,30.70
2018-07-17T13:56:44.970Z,30.60
2018-07-17T13:59:13.394Z,30.40
2018-07-17T14:01:41.928Z,30.30
2018-07-17T14:04:10.332Z,30.30
2018-07-17T14:06:39.246Z,30.30
2018-07-17T14:09:08.701Z,30.30
2018-07-17T14:11:37.036Z,30.30
2018-07-17T14:14:05.466Z,30.40
2018-07-17T14:16:33.838Z,30.60
2018-07-17T14:21:30.395Z,31.00
2018-07-17T14:23:58.765Z,31.30
2018-07-17T14:26:27.234Z,31.40
2018-07-17T14:28:55.767Z,31.40
2018-07-17T14:31:24.219Z,31.40
2018-07-17T14:33:52.588Z,31.40
2018-07-17T14:36:20.946Z,31.40
2018-07-17T14:38:49.378Z,31.20
2018-07-17T14:41:17.840Z,31.10
2018-07-17T14:43:47.284Z,31.00
2018-07-17T14:46:15.650Z,31.00
2018-07-17T14:48:44.000Z,30.80
2018-07-17T14:51:13.873Z,30.60
2018-07-17T14:53:42.277Z,30.40
2018-07-17T14:56:10.844Z,30.20
2018-07-17T14:58:39.248Z,30.00
2018-07-17T15:01:07.782Z,29.70
2018-07-17T15:03:36.173Z,29.50
2018-07-17T15:06:04.822Z,29.30
2018-07-17T15:08:37.350Z,29.10
2018-07-17T15:11:05.999Z,28.80
2018-07-17T15:13:34.512Z,28.60
2018-07-17T15:16:02.953Z,28.50
2018-07-17T15:18:31.477Z,28.30
2018-07-17T15:21:01.993Z,28.30
2018-07-17T15:23:32.433Z,28.30
2018-07-17T15:26:00.873Z,28.30
2018-07-17T15:28:29.344Z,28.30
2018-07-17T15:30:57.854Z,28.10
2018-07-17T15:33:26.365Z,28.00
2018-07-17T15:35:54.781Z,27.90
2018-07-17T15:38:23.322Z,27.80
2018-07-17T15:40:51.909Z,27.80
2018-07-17T15:43:20.337Z,27.80
2018-07-17T15:45:48.901Z,27.80
2018-07-17T15:48:17.362Z,27.80
2018-07-17T15:53:56.586Z,27.80
2018-07-17T15:56:25.093Z,27.80
2018-07-17T15:58:56.609Z,27.70
2018-07-17T16:01:25.275Z,27.70
2018-07-17T16:04:01.220Z,27.70
2018-07-17T16:06:32.637Z,27.60
2018-07-17T16:09:01.168Z,27.50
2018-07-17T16:11:31.052Z,27.40
2018-07-17T16:14:28.164Z,27.30
2018-07-17T16:17:04.663Z,27.20
2018-07-17T16:19:44.602Z,27.00
2018-07-17T16:22:18.789Z,26.90
2018-07-17T16:24:49.993Z,26.80
2018-07-17T16:27:21.319Z,26.70
2018-07-17T16:29:52.215Z,26.70
2018-07-17T16:32:22.292Z,26.60
2018-07-17T16:35:14.033Z,26.60
2018-07-17T16:37:42.705Z,26.50
2018-07-17T16:41:06.365Z,26.40
2018-07-17T16:43:37.583Z,26.30
2018-07-17T16:46:06.194Z,26.20
2018-07-17T16:48:34.707Z,26.10
2018-07-17T16:53:31.229Z,25.80
2018-07-17T16:55:59.684Z,25.70
2018-07-17T16:58:28.083Z,25.60
2018-07-17T17:00:56.544Z,25.50
2018-07-17T17:03:24.942Z,25.50
2018-07-17T17:05:57.569Z,25.40
2018-07-17T17:08:26.333Z,25.30
2018-07-17T17:10:54.685Z,25.20
2018-07-17T17:13:23.089Z,25.20
2018-07-17T17:15:51.540Z,25.10
2018-07-17T17:18:19.887Z,25.00
2018-07-17T17:20:48.272Z,25.00
2018-07-17T17:23:16.768Z,24.90
2018-07-17T17:25:45.255Z,24.90
2018-07-17T17:28:13.693Z,24.80
2018-07-17T17:30:42.256Z,24.80
2018-07-17T17:33:20.772Z,24.70
2018-07-17T17:35:51.725Z,24.70
2018-07-17T17:41:07.728Z,24.60
2018-07-17T17:43:44.899Z,24.60
2018-07-17T17:46:15.226Z,24.50
2018-07-17T17:48:49.652Z,24.50
2018-07-17T17:51:33.161Z,24.50
2018-07-17T17:54:03.845Z,24.50
2018-07-17T17:56:51.128Z,24.50
